Time;durP1;ratioP1;P1;durP2;ratioP2;P2;SDS_P1;SDS_P2;PMS_P1;PMS_P2;Temp;Humidity;BMP_temperature;BMP_pressure;BME280_temperature;BME280_humidity;BME280_pressure;Samples;Min_cycle;Max_cycle;Signal;HPM_P1;HPM_P2
2021/12/27 00:02:19;;;;;;;25.08;12.25;;;;;;;2.37;100.00;100151.16;5089497;28;20035;-71
2021/12/27 00:04:45;;;;;;;25.65;13.60;;;;;;;2.35;100.00;100153.13;5089512;28;20055;-71
2021/12/27 00:07:10;;;;;;;28.60;14.20;;;;;;;2.38;100.00;100152.84;5089323;28;20024;-71
2021/12/27 00:09:36;;;;;;;26.38;14.38;;;;;;;2.40;100.00;100144.75;5089335;28;20028;-71
2021/12/27 00:12:03;;;;;;;28.35;13.65;;;;;;;2.40;100.00;100147.41;5089209;28;20059;-71
2021/12/27 00:14:28;;;;;;;27.60;12.80;;;;;;;2.40;100.00;100150.84;5089006;28;20429;-71
2021/12/27 00:16:53;;;;;;;29.70;15.23;;;;;;;2.42;100.00;100145.44;5087455;28;20089;-71
2021/12/27 00:19:19;;;;;;;28.73;14.27;;;;;;;2.42;100.00;100148.06;5089367;28;20119;-71
2021/12/27 00:21:44;;;;;;;28.20;13.48;;;;;;;2.42;100.00;100148.06;5069869;28;20026;-71
2021/12/27 00:24:10;;;;;;;28.35;13.00;;;;;;;2.41;100.00;100141.97;5069821;28;20028;-71
2021/12/27 00:26:35;;;;;;;28.15;14.00;;;;;;;2.44;100.00;100142.63;5069857;28;20033;-71
2021/12/27 00:29:00;;;;;;;26.05;12.60;;;;;;;2.44;100.00;100138.22;5069799;28;20098;-71
2021/12/27 00:31:26;;;;;;;27.80;12.90;;;;;;;2.44;100.00;100140.84;5082570;28;20106;-71
2021/12/27 00:33:51;;;;;;;28.67;15.15;;;;;;;2.44;100.00;100135.56;5087811;28;20409;-70
2021/12/27 00:36:16;;;;;;;24.02;12.68;;;;;;;2.45;100.00;100126.69;5091396;28;20032;-71
2021/12/27 00:38:42;;;;;;;27.58;14.10;;;;;;;2.46;100.00;100130.13;5093131;28;20028;-70
2021/12/27 00:41:07;;;;;;;32.17;15.68;;;;;;;2.44;100.00;100127.69;5093122;28;20082;-70
2021/12/27 00:43:33;;;;;;;27.58;13.32;;;;;;;2.43;100.00;100123.38;5093266;28;20442;-71
2021/12/27 00:45:58;;;;;;;24.80;13.13;;;;;;;2.48;100.00;100122.91;5093127;28;20032;-70
2021/12/27 00:48:24;;;;;;;24.80;11.88;;;;;;;2.47;100.00;100124.72;5093023;28;20031;-71
2021/12/27 00:50:50;;;;;;;26.55;13.25;;;;;;;2.50;100.00;100127.03;5093129;28;20027;-70
2021/12/27 00:53:15;;;;;;;25.65;11.95;;;;;;;2.48;100.00;100118.47;5093014;28;20544;-71
2021/12/27 00:55:41;;;;;;;23.85;12.82;;;;;;;2.47;100.00;100106.28;5092230;28;20916;-71
2021/12/27 00:58:06;;;;;;;26.50;12.52;;;;;;;2.52;100.00;100111.09;5080149;28;20033;-70
2021/12/27 01:00:31;;;;;;;26.55;13.60;;;;;;;2.54;100.00;100114.34;5073440;28;20048;-71
2021/12/27 01:02:58;;;;;;;26.67;12.32;;;;;;;2.54;100.00;100109.09;5073405;28;20036;-70
2021/12/27 01:05:25;;;;;;;27.05;12.02;;;;;;;2.54;100.00;100099.41;5073422;28;20070;-70
2021/12/27 01:07:51;;;;;;;24.60;13.25;;;;;;;2.56;100.00;100101.84;5073289;28;20103;-70
2021/12/27 01:18:05;;;;;;;23.90;11.38;;;;;;;2.58;100.00;100095.44;5072976;28;20041;-70
2021/12/27 01:20:31;;;;;;;23.75;11.75;;;;;;;2.58;100.00;100094.63;5073088;28;20390;-70
2021/12/27 01:22:56;;;;;;;22.27;10.88;;;;;;;2.60;100.00;100098.75;5072959;28;20024;-70
2021/12/27 01:25:22;;;;;;;23.80;11.88;;;;;;;2.60;100.00;100096.13;5073046;28;20538;-70
2021/12/27 01:27:48;;;;;;;23.48;11.88;;;;;;;2.58;100.00;100090.19;5072872;28;20024;-70
2021/12/27 01:30:18;;;;;;;25.27;13.30;;;;;;;2.61;100.00;100092.47;5072848;28;20042;-70
2021/12/27 01:32:51;;;;;;;26.73;12.05;;;;;;;2.63;100.00;100093.16;5072855;28;20051;-70
2021/12/27 01:35:17;;;;;;;25.08;12.23;;;;;;;2.63;100.00;100087.06;5072603;28;20036;-71
2021/12/27 01:37:44;;;;;;;25.58;12.48;;;;;;;2.64;100.00;100096.59;5072713;28;20024;-70
2021/12/27 01:40:12;;;;;;;27.08;13.82;;;;;;;2.64;100.00;100086.88;5072629;28;20036;-71
2021/12/27 01:42:57;;;;;;;25.08;13.38;;;;;;;2.67;100.00;100083.09;5072732;28;20476;-71
2021/12/27 01:45:24;;;;;;;25.85;12.02;;;;;;;2.68;100.00;100076.88;5091756;28;20024;-71
2021/12/27 01:47:49;;;;;;;25.02;12.82;;;;;;;2.70;100.00;100084.59;5091649;28;20618;-70
2021/12/27 01:50:14;;;;;;;25.85;12.35;;;;;;;2.71;100.00;100087.06;5091712;28;20119;-71
2021/12/27 01:52:40;;;;;;;25.42;12.73;;;;;;;2.72;100.00;100083.44;5091659;28;20483;-71
2021/12/27 01:55:06;;;;;;;23.45;12.52;;;;;;;2.73;100.00;100079.81;5074765;28;20181;-70
2021/12/27 01:57:31;;;;;;;25.08;12.63;;;;;;;2.63;100.00;100061.56;5071831;28;20036;-71
2021/12/27 01:59:56;;;;;;;24.25;10.88;;;;;;;2.74;100.00;100080.66;5072219;28;20025;-71
2021/12/27 02:02:22;;;;;;;24.92;12.15;;;;;;;2.76;100.00;100081.31;5072223;28;20024;-71
2021/12/27 02:04:47;;;;;;;23.95;12.43;;;;;;;2.77;100.00;100075.03;5072312;28;20123;-70
2021/12/27 02:07:13;;;;;;;26.48;12.18;;;;;;;2.77;100.00;100075.03;5071931;28;20430;-70
2021/12/27 02:09:49;;;;;;;24.27;12.27;;;;;;;2.75;100.00;100067.34;5091535;28;20036;-71
2021/12/27 02:12:14;;;;;;;25.20;11.55;;;;;;;2.79;100.00;100075.72;5091242;28;20028;-71
2021/12/27 02:14:40;;;;;;;25.35;12.02;;;;;;;2.81;100.00;100076.38;5091593;28;20101;-71
2021/12/27 02:17:05;;;;;;;27.98;13.15;;;;;;;2.80;100.00;100080.81;5091480;28;20115;-70
2021/12/27 02:19:34;;;;;;;24.73;10.63;;;;;;;2.79;100.00;100068.63;5091094;28;20471;-70
2021/12/27 02:21:59;;;;;;;27.40;12.48;;;;;;;2.83;100.00;100075.22;5091214;28;20028;-70
2021/12/27 02:24:25;;;;;;;26.35;11.82;;;;;;;2.84;100.00;100076.84;5091216;28;20495;-71
2021/12/27 02:26:51;;;;;;;25.17;11.30;;;;;;;2.84;100.00;100079.47;5091186;28;20032;-70
2021/12/27 02:29:16;;;;;;;25.55;12.25;;;;;;;2.85;100.00;100075.03;5089615;28;20016;-70
2021/12/27 02:31:42;;;;;;;22.95;10.98;;;;;;;2.87;100.00;100069.63;5091121;28;20093;-71
2021/12/27 02:34:10;;;;;;;26.63;12.85;;;;;;;2.89;100.00;100075.53;5091259;28;20156;-70
2021/12/27 02:36:35;;;;;;;24.95;12.43;;;;;;;2.88;100.00;100063.34;5091019;28;20032;-71
2021/12/27 02:39:01;;;;;;;20.35;10.23;;;;;;;2.90;100.00;100061.38;5089576;28;20118;-71
2021/12/27 02:41:26;;;;;;;26.88;13.60;;;;;;;2.90;100.00;100064.00;5090734;28;20032;-71
2021/12/27 02:43:51;;;;;;;24.58;12.98;;;;;;;2.92;100.00;100062.84;5090812;28;20059;-71
2021/12/27 02:46:17;;;;;;;23.48;11.85;;;;;;;2.89;100.00;100057.13;5090591;28;20113;-70
2021/12/27 02:48:46;;;;;;;26.80;12.43;;;;;;;2.92;100.00;100060.22;5090535;28;20024;-70
2021/12/27 02:51:14;;;;;;;27.73;12.95;;;;;;;2.93;100.00;100053.97;5090906;28;20028;-71
2021/12/27 02:53:39;;;;;;;29.33;15.70;;;;;;;2.93;100.00;100055.78;5090725;28;20030;-71
2021/12/27 02:56:06;;;;;;;24.98;13.20;;;;;;;2.95;100.00;100054.63;5090551;28;20507;-70
2021/12/27 02:58:34;;;;;;;24.90;11.80;;;;;;;2.96;100.00;100053.66;5089851;28;20483;-70
2021/12/27 03:01:07;;;;;;;25.13;13.55;;;;;;;2.97;100.00;100054.47;5090643;28;20054;-70
2021/12/27 03:03:33;;;;;;;24.27;12.68;;;;;;;2.98;100.00;100054.28;5090015;28;20031;-70
2021/12/27 03:05:58;;;;;;;25.10;12.32;;;;;;;2.99;100.00;100047.22;5090514;28;20548;-70
2021/12/27 03:08:26;;;;;;;25.42;12.93;;;;;;;3.00;100.00;100044.41;5089815;28;20028;-70
2021/12/27 03:10:56;;;;;;;23.58;9.98;;;;;;;2.95;100.00;100038.81;5090371;28;20031;-71
2021/12/27 03:13:26;;;;;;;25.08;12.82;;;;;;;3.03;100.00;100048.53;5089881;28;20056;-71
2021/12/27 03:15:57;;;;;;;26.05;14.35;;;;;;;3.03;100.00;100044.06;5090144;28;20478;-70
2021/12/27 03:18:23;;;;;;;24.73;11.77;;;;;;;3.05;100.00;100039.47;5090129;28;20081;-71
2021/12/27 03:20:50;;;;;;;24.83;12.60;;;;;;;3.07;100.00;100034.03;5090134;28;20063;-70
2021/12/27 03:23:16;;;;;;;25.98;12.90;;;;;;;3.07;100.00;100040.13;5090011;28;20046;-72
2021/12/27 03:25:42;;;;;;;23.20;12.25;;;;;;;3.07;100.00;100037.50;5089968;28;20027;-71
2021/12/27 03:28:08;;;;;;;25.10;11.57;;;;;;;3.07;100.00;100029.59;5089914;28;20032;-70
2021/12/27 03:30:34;;;;;;;27.25;13.23;;;;;;;3.09;100.00;100032.03;5089939;28;20100;-70
2021/12/27 03:33:00;;;;;;;25.08;12.07;;;;;;;3.10;100.00;100038.97;5089926;28;20027;-70
2021/12/27 03:35:26;;;;;;;26.35;12.57;;;;;;;3.11;100.00;100031.88;5089809;28;20051;-70
2021/12/27 03:37:55;;;;;;;22.67;11.93;;;;;;;3.11;100.00;100024.78;5089809;28;20027;-70
2021/12/27 03:40:21;;;;;;;24.83;12.55;;;;;;;3.12;100.00;100038.78;5089716;28;20105;-70
2021/12/27 03:42:50;;;;;;;25.65;12.73;;;;;;;3.12;100.00;100034.34;5089710;28;20032;-70
2021/12/27 03:45:37;;;;;;;25.08;12.50;;;;;;;3.14;100.00;100024.44;5089385;28;20913;-70
2021/12/27 03:48:05;;;;;;;23.48;11.10;;;;;;;3.15;100.00;100023.47;5070027;28;20115;-70
2021/12/27 03:50:31;;;;;;;25.00;13.40;;;;;;;3.17;100.00;100020.66;5069056;28;20042;-70
2021/12/27 03:52:56;;;;;;;25.58;11.70;;;;;;;3.19;100.00;100027.41;5070334;28;20040;-71
2021/12/27 03:55:23;;;;;;;25.10;11.45;;;;;;;3.20;100.00;100028.25;5069991;28;20625;-70
2021/12/27 03:57:54;;;;;;;25.17;12.95;;;;;;;3.20;100.00;100013.25;5070046;28;20444;-70
2021/12/27 04:02:51;;;;;;;24.42;11.50;;;;;;;3.24;100.00;100008.44;5070150;28;20680;-70
2021/12/27 04:05:17;;;;;;;25.05;12.70;;;;;;;3.25;100.00;99999.56;5070010;28;20048;-70
2021/12/27 04:07:44;;;;;;;26.48;12.43;;;;;;;3.26;100.00;100001.22;5069841;28;20379;-70
2021/12/27 04:10:11;;;;;;;26.50;11.95;;;;;;;3.03;100.00;99964.22;5070155;28;20032;-70
2021/12/27 04:12:37;;;;;;;29.10;12.63;;;;;;;3.28;100.00;99996.59;5069863;28;20036;-70
2021/12/27 04:15:05;;;;;;;27.67;11.23;;;;;;;3.29;100.00;100000.88;5069753;28;20024;-70
2021/12/27 04:17:30;;;;;;;31.65;12.15;;;;;;;3.30;100.00;99997.22;5069947;28;20460;-70
2021/12/27 04:19:56;;;;;;;24.83;11.05;;;;;;;3.31;100.00;99993.63;5069915;28;20044;-70
2021/12/27 04:22:21;;;;;;;23.83;10.30;;;;;;;3.32;100.00;99992.59;5070071;28;20029;-70
2021/12/27 04:24:47;;;;;;;23.42;12.13;;;;;;;3.34;100.00;99995.91;5068738;28;20033;-70
2021/12/27 04:27:12;;;;;;;24.70;11.68;;;;;;;3.35;100.00;99983.53;5069844;28;20024;-70
2021/12/27 04:29:37;;;;;;;24.77;11.18;;;;;;;3.36;100.00;99985.19;5069795;28;20387;-72
2021/12/27 04:32:03;;;;;;;25.42;11.50;;;;;;;3.35;100.00;99973.81;5068595;28;20112;-70
2021/12/27 04:34:29;;;;;;;25.52;11.73;;;;;;;3.38;100.00;99977.91;5069225;28;20047;-71
2021/12/27 04:36:54;;;;;;;24.38;11.15;;;;;;;3.39;100.00;99975.13;5068758;28;20426;-70
2021/12/27 04:39:19;;;;;;;24.90;10.80;;;;;;;3.39;100.00;99969.84;5069348;28;20036;-70
2021/12/27 04:41:45;;;;;;;22.45;11.38;;;;;;;3.37;100.00;99969.19;5068121;28;20067;-70
2021/12/27 04:44:11;;;;;;;22.33;11.32;;;;;;;3.41;100.00;99978.41;5069646;28;20028;-70
2021/12/27 04:46:36;;;;;;;28.38;11.95;;;;;;;3.41;100.00;99973.16;5069533;28;20032;-70
2021/12/27 04:49:02;;;;;;;23.90;12.00;;;;;;;3.40;100.00;99960.94;5069623;28;20024;-70
2021/12/27 04:51:27;;;;;;;24.23;12.05;;;;;;;3.41;100.00;99964.44;5069538;28;20388;-70
2021/12/27 04:53:53;;;;;;;23.30;11.20;;;;;;;3.45;100.00;99973.63;5069728;28;20033;-70
2021/12/27 04:56:19;;;;;;;22.52;11.77;;;;;;;3.41;100.00;99959.97;5069391;28;20036;-70
2021/12/27 04:58:46;;;;;;;22.10;11.18;;;;;;;3.46;100.00;99962.91;5069508;28;20048;-70
2021/12/27 05:01:12;;;;;;;22.02;10.25;;;;;;;3.41;100.00;99944.16;5069521;28;20040;-70
2021/12/27 05:03:37;;;;;;;24.25;9.80;;;;;;;3.49;100.00;99959.94;5069484;28;20043;-70
2021/12/27 05:06:03;;;;;;;21.90;10.70;;;;;;;3.51;100.00;99960.59;5078892;28;20028;-70
2021/12/27 05:08:28;;;;;;;22.42;10.35;;;;;;;3.53;100.00;99951.66;5082149;28;20028;-70
2021/12/27 05:10:54;;;;;;;24.23;11.07;;;;;;;3.49;100.00;99952.03;5069188;28;20452;-70
2021/12/27 05:13:19;;;;;;;23.70;11.20;;;;;;;3.45;100.00;99948.06;5069554;28;20028;-70
2021/12/27 05:15:45;;;;;;;21.05;10.55;;;;;;;3.55;100.00;99961.03;5069310;28;20025;-70
2021/12/27 05:18:11;;;;;;;22.45;10.30;;;;;;;3.56;100.00;99954.78;5069487;28;20488;-70
2021/12/27 05:20:37;;;;;;;22.52;10.20;;;;;;;3.57;100.00;99961.69;5087384;28;20437;-70
2021/12/27 05:23:02;;;;;;;22.23;9.80;;;;;;;3.58;100.00;99949.34;5092012;28;20028;-70
2021/12/27 05:25:28;;;;;;;22.90;10.93;;;;;;;3.60;100.00;99948.16;5091116;28;20040;-70
2021/12/27 05:27:53;;;;;;;22.27;9.90;;;;;;;3.60;100.00;99950.00;5092008;28;20047;-70
2021/12/27 05:30:19;;;;;;;20.92;10.77;;;;;;;3.61;100.00;99941.88;5092299;28;20028;-70
2021/12/27 05:32:45;;;;;;;25.70;12.48;;;;;;;3.63;100.00;99949.63;5091867;28;20115;-70
2021/12/27 05:35:11;;;;;;;20.77;10.50;;;;;;;3.62;100.00;99940.91;5091893;28;20130;-70
2021/12/27 05:37:38;;;;;;;24.67;11.00;;;;;;;3.67;100.00;99945.69;5092051;28;20028;-70
2021/12/27 05:40:06;;;;;;;21.88;9.98;;;;;;;3.68;100.00;99936.75;5092035;28;20059;-70
2021/12/27 05:42:33;;;;;;;22.13;11.23;;;;;;;3.70;100.00;99940.03;5092004;28;20050;-70
2021/12/27 05:44:59;;;;;;;22.70;9.98;;;;;;;3.71;100.00;99942.50;5092035;28;20024;-70
2021/12/27 05:47:24;;;;;;;19.48;10.98;;;;;;;3.72;100.00;99932.75;5091976;28;20035;-70
2021/12/27 05:49:49;;;;;;;22.98;10.93;;;;;;;3.76;100.00;99938.53;5091592;28;20036;-70
2021/12/27 05:52:15;;;;;;;22.13;10.13;;;;;;;3.77;100.00;99935.69;5091880;28;20043;-70
2021/12/27 05:54:41;;;;;;;23.10;11.45;;;;;;;3.80;100.00;99942.44;5091808;28;20504;-73
2021/12/27 05:57:07;;;;;;;22.98;11.73;;;;;;;3.80;100.00;99932.72;5091606;28;20087;-70
2021/12/27 05:59:32;;;;;;;23.15;11.23;;;;;;;3.82;100.00;99935.19;5091587;28;20498;-70
2021/12/27 06:01:57;;;;;;;21.30;11.27;;;;;;;3.83;100.00;99940.28;5091500;28;20020;-70
2021/12/27 06:04:23;;;;;;;22.40;10.52;;;;;;;3.85;100.00;99943.56;5091430;28;20036;-72
2021/12/27 06:06:48;;;;;;;23.05;13.60;;;;;;;3.86;100.00;99933.84;5091627;28;20387;-70
2021/12/27 06:09:14;;;;;;;23.05;10.18;;;;;;;3.87;100.00;99938.91;5090239;28;20130;-70
2021/12/27 06:11:39;;;;;;;20.98;9.57;;;;;;;3.89;100.00;99942.22;5091241;28;20057;-70
2021/12/27 06:14:04;;;;;;;22.98;9.27;;;;;;;3.86;100.00;99929.38;5091579;28;20098;-70
2021/12/27 06:16:30;;;;;;;21.98;10.15;;;;;;;3.92;100.00;99939.22;5091444;28;20511;-70
2021/12/27 06:18:55;;;;;;;22.23;10.02;;;;;;;3.97;100.00;99943.97;5091230;28;20035;-70
2021/12/27 06:21:21;;;;;;;20.77;9.85;;;;;;;3.99;100.00;99947.25;5091268;28;20038;-70
2021/12/27 06:23:46;;;;;;;23.02;10.55;;;;;;;3.92;100.00;99923.38;5091130;28;20035;-73
2021/12/27 06:26:12;;;;;;;19.92;9.32;;;;;;;4.03;100.00;99942.44;5089808;28;20081;-70
2021/12/27 06:28:38;;;;;;;18.13;8.68;;;;;;;4.05;100.00;99935.19;5090807;28;20028;-70
2021/12/27 06:31:04;;;;;;;22.65;10.45;;;;;;;4.08;100.00;99932.19;5091381;28;20032;-71
2021/12/27 06:33:31;;;;;;;21.88;9.95;;;;;;;4.07;100.00;99931.38;5090162;28;20042;-72
2021/12/27 06:35:56;;;;;;;22.35;10.18;;;;;;;4.12;100.00;99931.66;5078033;28;20498;-73
2021/12/27 06:38:22;;;;;;;23.08;11.07;;;;;;;4.15;100.00;99933.94;5070418;28;20029;-70
2021/12/27 06:40:51;;;;;;;21.48;10.27;;;;;;;4.16;100.00;99934.75;5071472;28;20475;-70
2021/12/27 06:43:17;;;;;;;22.73;10.68;;;;;;;4.16;100.00;99932.13;5071479;28;20120;-70
2021/12/27 06:45:43;;;;;;;19.88;9.52;;;;;;;4.17;100.00;99926.66;5071487;28;20033;-70
2021/12/27 06:48:09;;;;;;;24.52;10.68;;;;;;;4.20;100.00;99933.41;5069990;28;20097;-70
2021/12/27 06:50:35;;;;;;;19.85;9.35;;;;;;;4.22;100.00;99934.06;5071289;28;20028;-71
2021/12/27 06:53:01;;;;;;;22.05;10.48;;;;;;;4.21;100.00;99929.75;5071376;28;20115;-71
2021/12/27 06:55:26;;;;;;;19.70;9.68;;;;;;;4.23;100.00;99925.13;5071021;28;20140;-71
2021/12/27 06:57:52;;;;;;;22.55;9.60;;;;;;;4.23;100.00;99925.13;5090272;28;20032;-71
2021/12/27 07:00:18;;;;;;;24.15;9.93;;;;;;;4.24;100.00;99918.03;5089239;28;20078;-71
2021/12/27 07:02:44;;;;;;;23.95;9.27;;;;;;;4.27;100.00;99921.16;5090645;28;20439;-71
2021/12/27 07:05:11;;;;;;;21.13;9.23;;;;;;;4.28;100.00;99909.59;5090480;28;20040;-71
2021/12/27 07:07:37;;;;;;;18.63;9.18;;;;;;;4.29;100.00;99908.56;5090292;28;20028;-71
2021/12/27 07:10:08;;;;;;;19.83;9.18;;;;;;;4.30;100.00;99909.41;5090373;28;20027;-71
2021/12/27 07:12:34;;;;;;;19.20;9.18;;;;;;;4.32;100.00;99910.03;5090204;28;20084;-71
2021/12/27 07:14:59;;;;;;;20.80;8.90;;;;;;;4.31;100.00;99911.03;5088852;28;20028;-71
2021/12/27 07:17:26;;;;;;;19.65;8.63;;;;;;;4.30;100.00;99907.59;5089978;28;20035;-70
2021/12/27 07:19:51;;;;;;;17.13;7.07;;;;;;;4.32;100.00;99905.59;5089589;28;20028;-71
2021/12/27 07:22:17;;;;;;;21.95;9.57;;;;;;;4.32;100.00;99905.59;5089657;28;20387;-71
2021/12/27 07:24:42;;;;;;;17.58;9.50;;;;;;;4.31;100.00;99903.94;5088619;28;20036;-71
2021/12/27 07:27:07;;;;;;;21.15;9.13;;;;;;;4.28;100.00;99901.66;5089834;28;20024;-71
2021/12/27 07:29:33;;;;;;;20.67;8.95;;;;;;;4.29;100.00;99894.56;5089849;28;20524;-71
2021/12/27 07:31:59;;;;;;;19.27;9.27;;;;;;;4.29;100.00;99894.56;5089949;28;20020;-73
2021/12/27 07:34:24;;;;;;;19.52;8.85;;;;;;;4.30;100.00;99898.84;5089784;28;20498;-70
2021/12/27 07:36:55;;;;;;;21.33;9.32;;;;;;;4.26;100.00;99897.56;5089899;28;20028;-70
2021/12/27 07:39:22;;;;;;;21.37;10.07;;;;;;;4.28;100.00;99892.94;5089706;28;20051;-70
2021/12/27 07:41:49;;;;;;;18.10;8.45;;;;;;;4.26;100.00;99895.75;5089646;28;20024;-70
2021/12/27 07:44:16;;;;;;;21.00;9.85;;;;;;;4.26;100.00;99889.66;5089479;28;20110;-71
2021/12/27 07:46:43;;;;;;;18.80;8.68;;;;;;;4.27;100.00;99889.47;5089835;28;20055;-69
2021/12/27 07:49:09;;;;;;;18.90;8.35;;;;;;;4.27;100.00;99883.34;5089496;28;20032;-70
2021/12/27 07:51:35;;;;;;;18.67;8.27;;;;;;;4.20;100.00;99879.81;5087451;28;20042;-71
2021/12/27 07:54:01;;;;;;;18.92;9.18;;;;;;;4.22;100.00;99891.84;5083651;28;20395;-71
2021/12/27 07:56:26;;;;;;;21.27;11.15;;;;;;;4.21;100.00;99892.81;5081869;28;20049;-70
2021/12/27 07:58:52;;;;;;;17.15;7.47;;;;;;;4.18;100.00;99886.06;5073494;28;20663;-73
2021/12/27 08:01:17;;;;;;;19.83;11.23;;;;;;;4.21;100.00;99886.72;5072964;28;20021;-74
2021/12/27 08:03:43;;;;;;;16.48;7.65;;;;;;;4.20;100.00;99887.75;5070256;28;20032;-71
2021/12/27 08:06:08;;;;;;;19.75;8.38;;;;;;;4.19;100.00;99892.16;5069963;28;20028;-70
2021/12/27 08:08:34;;;;;;;16.33;7.63;;;;;;;4.21;100.00;99894.63;5071664;28;20471;-71
2021/12/27 08:10:59;;;;;;;23.85;11.45;;;;;;;4.21;100.00;99898.09;5077268;28;20444;-70
2021/12/27 08:13:24;;;;;;;18.20;7.85;;;;;;;4.18;100.00;99891.34;5089231;28;20035;-73
2021/12/27 08:15:50;;;;;;;19.92;9.82;;;;;;;4.21;100.00;99895.47;5089304;28;20088;-70
2021/12/27 08:18:15;;;;;;;20.05;9.32;;;;;;;4.18;100.00;99907.19;5089507;28;20028;-72
2021/12/27 08:20:41;;;;;;;20.70;9.65;;;;;;;4.20;100.00;99906.22;5089416;28;20027;-71
2021/12/27 08:23:06;;;;;;;19.52;8.93;;;;;;;4.22;100.00;99902.38;5088955;28;20032;-70
2021/12/27 08:25:32;;;;;;;18.45;9.25;;;;;;;4.25;100.00;99904.66;5089068;28;20150;-67
2021/12/27 08:27:58;;;;;;;20.02;8.65;;;;;;;4.29;100.00;99911.22;5088967;28;20036;-67
2021/12/27 08:30:23;;;;;;;25.63;12.10;;;;;;;4.33;100.00;99903.78;5089158;28;20123;-67
2021/12/27 08:32:48;;;;;;;19.52;8.63;;;;;;;4.36;100.00;99906.06;5088995;28;20036;-68
2021/12/27 08:35:15;;;;;;;21.02;8.50;;;;;;;4.32;100.00;99876.56;5088947;28;20036;-67
2021/12/27 08:37:43;;;;;;;19.52;8.85;;;;;;;4.46;100.00;99896.06;5088819;28;20081;-67
2021/12/27 08:40:09;;;;;;;20.88;9.20;;;;;;;4.49;100.00;99892.22;5088542;28;20473;-67
2021/12/27 08:42:35;;;;;;;19.13;9.13;;;;;;;4.53;100.00;99896.97;5088656;28;20951;-68
2021/12/27 08:45:01;;;;;;;20.73;9.73;;;;;;;4.54;100.00;99895.97;5088797;28;20032;-67
2021/12/27 08:47:26;;;;;;;20.55;9.13;;;;;;;4.55;100.00;99908.16;5088850;28;20048;-67
2021/12/27 08:49:52;;;;;;;20.85;10.02;;;;;;;4.56;100.00;99896.63;5088963;28;20118;-68
2021/12/27 08:52:17;;;;;;;23.15;9.57;;;;;;;4.56;100.00;99891.34;5087693;28;20589;-69
2021/12/27 08:54:43;;;;;;;20.77;9.38;;;;;;;4.61;100.00;99896.06;5088897;28;20024;-67
2021/12/27 08:57:09;;;;;;;20.65;9.45;;;;;;;4.65;100.00;99888.59;5090969;28;20063;-67
2021/12/27 08:59:36;;;;;;;18.48;8.68;;;;;;;4.64;100.00;99886.94;5092849;28;20497;-67
2021/12/27 09:02:02;;;;;;;19.77;9.23;;;;;;;4.67;100.00;99883.97;5092840;28;20024;-67
2021/12/27 09:04:27;;;;;;;18.27;8.65;;;;;;;4.72;100.00;99878.97;5092418;28;20092;-67
2021/12/27 09:06:53;;;;;;;24.15;10.35;;;;;;;4.72;100.00;99876.31;5092626;28;20035;-67
2021/12/27 09:09:18;;;;;;;19.17;8.95;;;;;;;4.70;100.00;99868.56;5092509;28;20480;-68
2021/12/27 09:11:44;;;;;;;23.25;11.38;;;;;;;4.67;100.00;99858.38;5092620;28;20039;-66
2021/12/27 09:14:09;;;;;;;20.20;9.73;;;;;;;4.67;100.00;99858.38;5092571;28;20143;-67
2021/12/27 09:16:35;;;;;;;22.17;11.23;;;;;;;4.69;100.00;99839.69;5091271;28;20067;-67
2021/12/27 09:19:00;;;;;;;25.50;11.23;;;;;;;4.70;100.00;99844.78;5092330;28;20024;-67
2021/12/27 09:21:25;;;;;;;23.17;11.25;;;;;;;4.70;100.00;99838.69;5092291;28;20502;-67
2021/12/27 09:23:51;;;;;;;24.92;12.95;;;;;;;4.77;100.00;99844.91;5092381;28;20031;-67
2021/12/27 09:26:17;;;;;;;25.33;10.90;;;;;;;4.74;100.00;99855.81;5090969;28;20091;-67
2021/12/27 09:28:42;;;;;;;21.70;11.32;;;;;;;4.71;100.00;99864.91;5090888;28;20032;-66
2021/12/27 09:31:08;;;;;;;22.02;11.02;;;;;;;4.65;100.00;99867.47;5092214;28;20035;-68
2021/12/27 09:33:33;;;;;;;21.80;10.25;;;;;;;4.61;100.00;99873.13;5092207;28;20063;-68
2021/12/27 09:35:59;;;;;;;19.25;8.90;;;;;;;4.54;100.00;99866.94;5092015;28;20510;-67
2021/12/27 09:38:24;;;;;;;21.85;10.27;;;;;;;4.63;100.00;99872.94;5092132;28;20035;-66
2021/12/27 09:40:49;;;;;;;21.10;9.88;;;;;;;4.71;100.00;99874.66;5092133;28;20072;-65
2021/12/27 09:43:15;;;;;;;22.08;10.05;;;;;;;4.80;100.00;99878.84;5090886;28;20058;-66
2021/12/27 09:45:41;;;;;;;18.85;8.88;;;;;;;4.86;100.00;99877.31;5092017;28;20035;-66
2021/12/27 09:48:06;;;;;;;21.23;10.18;;;;;;;4.95;100.00;99884.13;5091752;28;20196;-65
2021/12/27 09:50:38;;;;;;;21.67;9.60;;;;;;;4.98;100.00;99873.19;5091704;28;20360;-65
2021/12/27 09:53:04;;;;;;;18.63;8.45;;;;;;;5.03;100.00;99866.34;5090504;28;20077;-65
2021/12/27 09:55:29;;;;;;;18.65;9.10;;;;;;;5.07;100.00;99861.50;5090396;28;20441;-65
2021/12/27 09:57:55;;;;;;;19.75;9.68;;;;;;;5.13;100.00;99865.22;5091739;28;20084;-65
2021/12/27 10:00:22;;;;;;;17.30;8.18;;;;;;;5.08;100.00;99842.00;5091481;28;20036;-65
2021/12/27 10:02:53;;;;;;;14.50;7.30;;;;;;;5.22;100.00;99846.44;5090532;28;20414;-65
2021/12/27 10:05:20;;;;;;;14.82;8.00;;;;;;;5.26;100.00;99847.69;5091692;28;20032;-65
2021/12/27 10:07:46;;;;;;;18.42;8.90;;;;;;;5.32;100.00;99842.66;5091240;28;20043;-65
2021/12/27 10:10:12;;;;;;;20.35;10.70;;;;;;;5.35;100.00;99844.94;5091464;28;20032;-65
2021/12/27 10:12:38;;;;;;;18.00;8.15;;;;;;;5.40;100.00;99839.94;5091472;28;20024;-65
2021/12/27 10:15:11;;;;;;;16.02;7.85;;;;;;;5.39;100.00;99831.16;5091353;28;20024;-65
2021/12/27 10:17:38;;;;;;;16.23;8.20;;;;;;;5.46;100.00;99831.22;5071933;28;20028;-65
2021/12/27 10:20:16;;;;;;;17.42;8.18;;;;;;;5.51;100.00;99823.56;5071870;28;20085;-66
2021/12/27 10:22:54;;;;;;;16.38;7.32;;;;;;;5.55;100.00;99824.78;5071823;28;20545;-66
2021/12/27 10:25:20;;;;;;;17.65;7.72;;;;;;;5.57;100.00;99814.84;5091288;28;20032;-65
2021/12/27 10:27:47;;;;;;;17.85;8.82;;;;;;;5.55;100.00;99803.63;5091346;28;20085;-65
2021/12/27 10:30:16;;;;;;;16.75;9.27;;;;;;;5.53;100.00;99789.81;5091269;28;20793;-65
2021/12/27 10:32:43;;;;;;;14.68;7.55;;;;;;;5.47;100.00;99788.72;5091427;28;20387;-66
2021/12/27 10:35:11;;;;;;;15.05;8.68;;;;;;;5.43;100.00;99795.41;5090902;28;20425;-67
2021/12/27 10:37:39;;;;;;;15.13;6.57;;;;;;;5.40;100.00;99794.97;5089631;28;20027;-66
2021/12/27 10:40:15;;;;;;;14.93;7.78;;;;;;;5.37;100.00;99798.81;5091011;28;20084;-65
2021/12/27 10:42:46;;;;;;;15.75;6.72;;;;;;;5.31;100.00;99801.38;5090971;28;20031;-66
2021/12/27 10:45:18;;;;;;;16.55;7.25;;;;;;;5.30;100.00;99818.25;5071443;28;20484;-66
2021/12/27 10:47:46;;;;;;;18.17;7.85;;;;;;;5.33;100.00;99809.94;5090340;28;20038;-68
2021/12/27 10:50:17;;;;;;;17.88;7.45;;;;;;;5.35;100.00;99808.75;5090842;28;20107;-66
2021/12/27 10:53:03;;;;;;;14.18;7.15;;;;;;;5.43;100.00;99808.63;5090697;28;20039;-65
2021/12/27 10:55:34;;;;;;;15.65;7.60;;;;;;;5.52;100.00;99806.66;5090546;28;20548;-65
2021/12/27 10:58:13;;;;;;;13.63;6.85;;;;;;;5.65;100.00;99811.25;5090449;28;20099;-65
2021/12/27 11:00:40;;;;;;;25.88;9.18;;;;;;;5.72;100.00;99801.56;5090282;28;20056;-65
2021/12/27 11:03:05;;;;;;;16.50;7.93;;;;;;;5.76;100.00;99802.78;5090106;28;20040;-65
2021/12/27 11:05:34;;;;;;;16.17;8.18;;;;;;;5.83;100.00;99801.03;5090230;28;20040;-65
2021/12/27 11:08:04;;;;;;;18.23;8.48;;;;;;;5.93;100.00;99798.06;5073509;28;20033;-65
2021/12/27 11:10:34;;;;;;;17.70;9.05;;;;;;;6.01;100.00;99795.28;5089869;28;20042;-65
2021/12/27 11:13:00;;;;;;;15.02;7.57;;;;;;;6.14;100.00;99797.22;5090244;28;20429;-65
2021/12/27 11:15:30;;;;;;;14.73;7.72;;;;;;;6.23;100.00;99788.09;5090288;28;20028;-66
2021/12/27 11:17:57;;;;;;;16.05;7.38;;;;;;;6.38;100.00;99795.13;5090092;28;20051;-65
2021/12/27 11:20:23;;;;;;;16.05;7.55;;;;;;;6.42;100.00;99797.19;5088877;28;20032;-65
2021/12/27 11:22:51;;;;;;;16.05;7.53;;;;;;;6.46;100.00;99790.47;5089919;28;20024;-66
2021/12/27 11:25:32;;;;;;;14.50;6.90;;;;;;;6.49;100.00;99786.63;5090065;28;20502;-66